Time;durP1;ratioP1;P1;durP2;ratioP2;P2;SDS_P1;SDS_P2;PMS_P1;PMS_P2;Temp;Humidity;BMP_temperature;BMP_pressure;BME280_temperature;BME280_humidity;BME280_pressure;Samples;Min_cycle;Max_cycle;Signal;HPM_P1;HPM_P2
2022/04/02 00:01:10;;;;;;;114.03;31.57;;;;;;;;;;5076706;28;20626;-67
2022/04/02 00:03:37;;;;;;;129.13;32.40;;;;;;;;;;5076563;28;20203;-67
2022/04/02 00:06:05;;;;;;;121.07;32.27;;;;;;;;;;5076529;28;20278;-67
2022/04/02 00:08:34;;;;;;;121.37;32.83;;;;;;;;;;5076692;28;20219;-67
2022/04/02 00:11:01;;;;;;;125.70;30.20;;;;;;;;;;5076787;28;20282;-68
2022/04/02 00:13:30;;;;;;;119.83;34.13;;;;;;;;;;5076582;28;20219;-67
2022/04/02 00:16:01;;;;;;;136.47;32.87;;;;;;;;;;5076427;28;20242;-67
2022/04/02 00:18:31;;;;;;;106.43;28.30;;;;;;;;;;5077326;28;20218;-67
2022/04/02 00:20:58;;;;;;;111.20;33.50;;;;;;;;;;5076338;28;20653;-66
2022/04/02 00:23:43;;;;;;;123.43;29.13;;;;;;;;;;5076319;28;20204;-66
2022/04/02 00:26:13;;;;;;;120.83;28.67;;;;;;;;;;5076171;28;20286;-67
2022/04/02 00:28:41;;;;;;;118.57;30.73;;;;;;;;;;5076296;28;20640;-67
2022/04/02 00:31:10;;;;;;;111.73;27.87;;;;;;;;;;5076054;28;20199;-67
2022/04/02 00:33:39;;;;;;;104.50;29.87;;;;;;;;;;5076047;28;20295;-68
2022/04/02 00:36:06;;;;;;;112.00;29.93;;;;;;;;;;5075929;28;20234;-69
2022/04/02 00:38:34;;;;;;;114.13;28.43;;;;;;;;;;5076049;28;20199;-69
2022/04/02 00:41:01;;;;;;;102.63;29.33;;;;;;;;;;5076716;28;20283;-69
2022/04/02 00:43:34;;;;;;;108.63;28.67;;;;;;;;;;5075971;28;20203;-68
2022/04/02 00:46:05;;;;;;;108.53;26.37;;;;;;;;;;5075835;28;20634;-68
2022/04/02 00:48:33;;;;;;;105.10;28.37;;;;;;;;;;5075853;28;20685;-68
2022/04/02 00:51:02;;;;;;;97.70;23.77;;;;;;;;;;5074780;28;20572;-68
2022/04/02 01:15:16;;;;;;;95.57;23.93;;;;;;;;;;5112901;27;20539;-42
2022/04/02 01:17:49;;;;;;;89.03;20.80;;;;;;;;;;5111839;28;20269;-43
2022/04/02 01:20:30;;;;;;;79.67;19.37;;;;;;;;;;5112358;28;20289;-42
2022/04/02 01:23:00;;;;;;;75.37;18.60;;;;;;;;;;5111549;28;20225;-42
2022/04/02 01:25:34;;;;;;;71.93;18.77;;;;;;;;;;5110262;28;20279;-43
2022/04/02 01:28:06;;;;;;;67.83;16.60;;;;;;;;;;5110608;28;20197;-42
2022/04/02 01:30:35;;;;;;;61.87;16.97;;;;;;;;;;5110081;28;20194;-42
2022/04/02 01:33:02;;;;;;;72.37;17.80;;;;;;;;;;5111322;28;20646;-42
2022/04/02 01:35:31;;;;;;;67.43;15.90;;;;;;;;;;5111661;28;20281;-42
2022/04/02 01:38:20;;;;;;;63.77;17.83;;;;;;;;;;5109976;28;20214;-43
2022/04/02 01:40:48;;;;;;;75.47;17.70;;;;;;;;;;5111077;28;20687;-43
2022/04/02 01:43:18;;;;;;;69.67;16.27;;;;;;;;;;5111098;28;20221;-42
2022/04/02 01:45:56;;;;;;;70.00;17.90;;;;;;;;;;5111680;28;20607;-42
2022/04/02 01:48:27;;;;;;;60.53;15.53;;;;;;;;;;5111376;28;20374;-43
2022/04/02 01:51:01;;;;;;;60.97;14.93;;;;;;;;;;5110890;28;20282;-42
2022/04/02 01:53:29;;;;;;;68.63;16.13;;;;;;;;;;5111561;28;20583;-42
2022/04/02 01:55:56;;;;;;;65.47;17.07;;;;;;;;;;5111086;28;20198;-42
2022/04/02 01:58:43;;;;;;;69.83;19.27;;;;;;;;;;5111565;28;20289;-42
2022/04/02 02:01:15;;;;;;;67.03;19.03;;;;;;;;;;5110808;28;20263;-42
2022/04/02 02:03:44;;;;;;;69.80;18.30;;;;;;;;;;5110601;28;20601;-42
2022/04/02 02:06:12;;;;;;;66.50;15.70;;;;;;;;;;5111460;28;20205;-42
2022/04/02 02:08:43;;;;;;;67.23;18.80;;;;;;;;;;5110919;28;20225;-42
2022/04/02 02:11:29;;;;;;;67.97;16.73;;;;;;;;;;5111681;28;20285;-42
2022/04/02 02:14:08;;;;;;;71.43;17.80;;;;;;;;;;5108861;28;20278;-42
2022/04/02 02:16:37;;;;;;;70.97;16.60;;;;;;;;;;5096915;28;20290;-42
2022/04/02 02:19:04;;;;;;;80.20;17.43;;;;;;;;;;5097082;28;20209;-41
2022/04/02 02:21:32;;;;;;;67.57;19.60;;;;;;;;;;5097099;28;20202;-42
2022/04/02 02:24:00;;;;;;;71.90;16.40;;;;;;;;;;5097001;28;20241;-41
2022/04/02 02:26:28;;;;;;;69.77;17.87;;;;;;;;;;5097692;28;20202;-42
2022/04/02 02:28:55;;;;;;;72.83;16.53;;;;;;;;;;5097501;28;20609;-41
2022/04/02 02:31:31;;;;;;;62.27;14.57;;;;;;;;;;5096794;28;20273;-42
2022/04/02 02:36:53;;;;;;;46.97;12.00;;;;;;;;;;5096670;28;20594;-42
2022/04/02 02:39:20;;;;;;;60.63;15.87;;;;;;;;;;5096707;28;20277;-42
2022/04/02 02:42:02;;;;;;;72.00;17.43;;;;;;;;;;5096522;28;20692;-42
2022/04/02 02:44:37;;;;;;;74.27;17.23;;;;;;;;;;5096782;28;20198;-41
2022/04/02 02:47:13;;;;;;;62.00;20.20;;;;;;;;;;5096493;28;20277;-43
2022/04/02 03:00:29;;;;;;;65.73;20.80;;;;;;;;;;5112617;27;20547;-42
2022/04/02 03:03:00;;;;;;;58.50;16.33;;;;;;;;;;5098765;28;20223;-41
2022/04/02 03:05:31;;;;;;;61.40;17.13;;;;;;;;;;5091411;28;20213;-41
2022/04/02 03:08:04;;;;;;;48.37;12.27;;;;;;;;;;5091021;28;20727;-41
2022/04/02 03:10:49;;;;;;;47.60;15.10;;;;;;;;;;5092375;28;20201;-41
2022/04/02 03:13:23;;;;;;;55.87;13.87;;;;;;;;;;5091003;28;20588;-41
2022/04/02 03:15:58;;;;;;;60.17;14.20;;;;;;;;;;5091107;28;20700;-41
2022/04/02 03:18:26;;;;;;;47.50;13.40;;;;;;;;;;5091873;28;20723;-41
2022/04/02 03:20:53;;;;;;;47.03;12.23;;;;;;;;;;5091843;28;20256;-41
2022/04/02 03:23:25;;;;;;;45.77;11.50;;;;;;;;;;5091241;28;20194;-41
2022/04/02 03:25:53;;;;;;;42.23;9.63;;;;;;;;;;5090910;28;20290;-41
2022/04/02 03:28:21;;;;;;;44.53;11.30;;;;;;;;;;5091506;28;20314;-41
2022/04/02 03:30:48;;;;;;;42.27;11.60;;;;;;;;;;5091235;28;20578;-40
2022/04/02 03:33:16;;;;;;;46.53;11.47;;;;;;;;;;5090848;28;20294;-41
2022/04/02 03:35:44;;;;;;;46.30;11.67;;;;;;;;;;5090512;28;20199;-41
2022/04/02 03:38:12;;;;;;;40.90;11.30;;;;;;;;;;5090762;28;20214;-40
2022/04/02 03:40:42;;;;;;;45.30;12.50;;;;;;;;;;5091417;28;20210;-41
2022/04/02 03:43:11;;;;;;;47.03;12.07;;;;;;;;;;5090414;28;20239;-41
2022/04/02 03:45:39;;;;;;;42.43;12.43;;;;;;;;;;5090608;28;20271;-40
2022/04/02 03:48:08;;;;;;;38.40;10.40;;;;;;;;;;5089635;28;20369;-42
2022/04/02 03:50:40;;;;;;;37.07;10.20;;;;;;;;;;5090014;28;20266;-41
2022/04/02 03:53:13;;;;;;;51.80;12.67;;;;;;;;;;5090379;28;20207;-41
2022/04/02 03:55:52;;;;;;;40.70;11.13;;;;;;;;;;5090928;28;20228;-41
2022/04/02 03:58:33;;;;;;;45.87;14.13;;;;;;;;;;5088567;28;20230;-40
2022/04/02 04:01:01;;;;;;;41.63;10.33;;;;;;;;;;5077482;28;20207;-41
2022/04/02 04:03:30;;;;;;;40.97;11.50;;;;;;;;;;5110283;28;20215;-41
2022/04/02 04:05:57;;;;;;;47.20;12.37;;;;;;;;;;5076947;28;20282;-42
2022/04/02 04:08:26;;;;;;;40.30;10.63;;;;;;;;;;5075492;28;20237;-41
2022/04/02 04:10:54;;;;;;;49.03;12.10;;;;;;;;;;5078818;28;20593;-41
2022/04/02 04:13:21;;;;;;;29.37;9.57;;;;;;;;;;5095412;28;20240;-41
2022/04/02 04:15:50;;;;;;;39.67;11.67;;;;;;;;;;5095175;28;20621;-41
2022/04/02 04:30:49;;;;;;;51.30;16.40;;;;;;;;;;5132959;27;20971;-44
2022/04/02 04:33:17;;;;;;;41.37;12.43;;;;;;;;;;5132831;27;20593;-45
2022/04/02 04:35:45;;;;;;;35.87;11.87;;;;;;;;;;5132849;27;20197;-46
2022/04/02 04:38:12;;;;;;;34.57;9.00;;;;;;;;;;5132711;27;20197;-45
2022/04/02 04:40:41;;;;;;;36.93;9.37;;;;;;;;;;5131724;28;20284;-45
2022/04/02 04:43:08;;;;;;;35.27;10.67;;;;;;;;;;5130791;28;20288;-46
2022/04/02 04:45:43;;;;;;;38.37;12.17;;;;;;;;;;5113883;28;20284;-45
2022/04/02 04:48:11;;;;;;;32.67;10.23;;;;;;;;;;5130760;28;20681;-45
2022/04/02 04:50:49;;;;;;;36.67;10.53;;;;;;;;;;5113803;28;20284;-49
2022/04/02 04:53:18;;;;;;;39.20;9.80;;;;;;;;;;5128080;28;20197;-46
2022/04/02 04:55:47;;;;;;;37.17;10.60;;;;;;;;;;5110147;28;20221;-44
2022/04/02 04:58:18;;;;;;;31.87;10.10;;;;;;;;;;5100906;28;20308;-44
2022/04/02 05:00:47;;;;;;;38.70;10.13;;;;;;;;;;5112216;28;20316;-44
2022/04/02 05:03:14;;;;;;;37.30;11.27;;;;;;;;;;5112220;28;20225;-45
2022/04/02 05:05:49;;;;;;;33.40;9.67;;;;;;;;;;5093375;28;20307;-45
2022/04/02 05:08:21;;;;;;;32.60;9.80;;;;;;;;;;5108706;28;20222;-47
2022/04/02 05:10:50;;;;;;;44.47;13.00;;;;;;;;;;5102385;28;20237;-46
2022/04/02 05:13:23;;;;;;;44.83;12.03;;;;;;;;;;5105123;27;20234;-44
2022/04/02 05:15:54;;;;;;;46.83;11.83;;;;;;;;;;5109507;28;20588;-51
2022/04/02 05:18:25;;;;;;;40.07;12.37;;;;;;;;;;5109252;27;20229;-45
2022/04/02 05:20:53;;;;;;;37.13;10.97;;;;;;;;;;5109585;28;20218;-45
2022/04/02 05:23:21;;;;;;;37.73;11.43;;;;;;;;;;5109439;27;20703;-45
2022/04/02 05:25:52;;;;;;;41.63;12.70;;;;;;;;;;5109608;28;20305;-46
2022/04/02 05:28:22;;;;;;;46.93;13.67;;;;;;;;;;5109092;27;20597;-47
2022/04/02 05:30:51;;;;;;;44.37;12.10;;;;;;;;;;5101909;28;20287;-47
2022/04/02 05:33:18;;;;;;;41.53;11.67;;;;;;;;;;5097124;28;20219;-48
2022/04/02 05:36:05;;;;;;;53.23;13.63;;;;;;;;;;5096222;28;20309;-45
2022/04/02 05:38:33;;;;;;;36.47;11.37;;;;;;;;;;5098284;28;20652;-46
2022/04/02 05:41:01;;;;;;;43.93;13.63;;;;;;;;;;5109080;28;20213;-45
2022/04/02 05:43:29;;;;;;;56.50;15.50;;;;;;;;;;5114279;28;20226;-48
2022/04/02 05:45:57;;;;;;;50.30;15.27;;;;;;;;;;5114426;28;20214;-46
2022/04/02 05:48:24;;;;;;;55.00;15.30;;;;;;;;;;5115907;28;20259;-45
2022/04/02 05:50:52;;;;;;;54.10;15.53;;;;;;;;;;5115281;27;20539;-46
2022/04/02 05:53:19;;;;;;;49.53;15.17;;;;;;;;;;5116026;28;20250;-45
2022/04/02 05:55:47;;;;;;;54.50;14.90;;;;;;;;;;5112383;27;20675;-45
2022/04/02 05:58:19;;;;;;;57.80;16.53;;;;;;;;;;5115448;28;20291;-46
2022/04/02 06:00:46;;;;;;;59.47;16.80;;;;;;;;;;5114830;27;20217;-45
2022/04/02 06:03:15;;;;;;;50.27;15.40;;;;;;;;;;5115812;28;20287;-46
2022/04/02 06:05:43;;;;;;;57.83;16.93;;;;;;;;;;5114963;28;20214;-47
2022/04/02 06:08:10;;;;;;;56.80;16.20;;;;;;;;;;5115425;28;20210;-46
2022/04/02 06:10:37;;;;;;;48.33;14.03;;;;;;;;;;5113865;27;20221;-48
2022/04/02 06:13:05;;;;;;;60.50;18.00;;;;;;;;;;5111940;28;20271;-47
2022/04/02 06:15:34;;;;;;;56.50;17.80;;;;;;;;;;5113306;28;20277;-48
2022/04/02 06:18:02;;;;;;;56.43;16.47;;;;;;;;;;5114914;28;20222;-52
2022/04/02 06:20:29;;;;;;;61.63;18.07;;;;;;;;;;5113277;28;20238;-48
2022/04/02 06:22:56;;;;;;;56.40;16.73;;;;;;;;;;5114853;28;20259;-48
2022/04/02 06:25:23;;;;;;;61.53;17.90;;;;;;;;;;5112018;28;20213;-47
2022/04/02 06:27:51;;;;;;;60.63;19.10;;;;;;;;;;5103356;28;20844;-49
2022/04/02 06:30:19;;;;;;;63.60;18.83;;;;;;;;;;5115457;27;20226;-48
2022/04/02 06:32:54;;;;;;;73.87;20.63;;;;;;;;;;5116247;28;20233;-48
2022/04/02 06:35:22;;;;;;;74.93;22.27;;;;;;;;;;5115040;28;20226;-46
2022/04/02 06:37:50;;;;;;;69.30;20.07;;;;;;;;;;5105450;28;20313;-51
2022/04/02 06:40:18;;;;;;;63.60;17.97;;;;;;;;;;5114643;28;20257;-49
2022/04/02 06:42:45;;;;;;;60.07;17.90;;;;;;;;;;5114344;28;20751;-49
2022/04/02 06:45:37;;;;;;;49.70;16.87;;;;;;;;;;5114902;28;20574;-48
2022/04/02 06:48:04;;;;;;;65.60;21.03;;;;;;;;;;5115970;28;20317;-48
2022/04/02 06:50:31;;;;;;;79.87;21.77;;;;;;;;;;5115013;27;20272;-50
2022/04/02 06:52:58;;;;;;;60.67;16.80;;;;;;;;;;5114229;28;20560;-49
2022/04/02 06:55:33;;;;;;;67.63;20.23;;;;;;;;;;5114054;27;20222;-47
2022/04/02 06:58:00;;;;;;;78.73;25.00;;;;;;;;;;5113914;28;20291;-50
2022/04/02 07:00:27;;;;;;;67.47;19.50;;;;;;;;;;5114535;28;20230;-48
2022/04/02 07:02:54;;;;;;;75.43;22.40;;;;;;;;;;5114341;28;20305;-48
2022/04/02 07:05:22;;;;;;;82.13;25.10;;;;;;;;;;5114360;28;20229;-49
2022/04/02 07:07:52;;;;;;;71.57;24.97;;;;;;;;;;5114040;27;20252;-51
2022/04/02 07:10:19;;;;;;;91.93;27.30;;;;;;;;;;5114328;27;20592;-50
2022/04/02 07:12:47;;;;;;;80.37;25.00;;;;;;;;;;5112329;27;20344;-53
2022/04/02 07:15:14;;;;;;;64.30;21.73;;;;;;;;;;5113309;28;20193;-49
2022/04/02 07:17:42;;;;;;;77.90;21.30;;;;;;;;;;5114749;28;20277;-50
2022/04/02 07:20:10;;;;;;;63.47;20.20;;;;;;;;;;5114764;28;20287;-49
2022/04/02 07:22:43;;;;;;;78.83;25.63;;;;;;;;;;5114017;28;20275;-50
2022/04/02 07:25:12;;;;;;;80.03;23.97;;;;;;;;;;5112750;28;20202;-48
2022/04/02 07:27:39;;;;;;;82.53;28.83;;;;;;;;;;5113828;28;20206;-49
2022/04/02 07:30:08;;;;;;;81.50;26.23;;;;;;;;;;5113355;28;20317;-48
2022/04/02 07:32:35;;;;;;;75.47;22.67;;;;;;;;;;5114808;28;20262;-48
2022/04/02 07:35:02;;;;;;;83.93;25.77;;;;;;;;;;5114231;28;20205;-47
2022/04/02 07:37:54;;;;;;;31.63;10.40;;;;;;;;;;5113570;28;20528;-59
2022/04/02 07:40:28;;;;;;;20.07;7.00;;;;;;;;;;5114098;28;20206;-54
2022/04/02 07:43:09;;;;;;;25.13;9.90;;;;;;;;;;5113332;28;20672;-55
2022/04/02 07:45:41;;;;;;;24.53;9.33;;;;;;;;;;5114234;28;20221;-57
2022/04/02 07:48:13;;;;;;;13.23;6.10;;;;;;;;;;5111960;28;20596;-58
2022/04/02 07:50:43;;;;;;;35.03;10.10;;;;;;;;;;5113405;28;20280;-58
2022/04/02 07:53:21;;;;;;;26.20;9.77;;;;;;;;;;5114164;28;20198;-57
2022/04/02 07:55:56;;;;;;;18.27;7.47;;;;;;;;;;5108396;28;20182;-48
2022/04/02 07:58:28;;;;;;;18.93;7.00;;;;;;;;;;5114282;28;20200;-51
2022/04/02 08:01:03;;;;;;;19.53;8.37;;;;;;;;;;5112861;28;20301;-51
2022/04/02 08:03:31;;;;;;;14.07;7.60;;;;;;;;;;5113419;28;20197;-54
2022/04/02 08:05:59;;;;;;;11.33;6.80;;;;;;;;;;5113773;28;20579;-49
2022/04/02 08:08:28;;;;;;;17.73;8.93;;;;;;;;;;5111437;28;20675;-47
2022/04/02 08:10:56;;;;;;;16.00;7.33;;;;;;;;;;5114158;28;20208;-52
2022/04/02 08:13:24;;;;;;;22.17;9.17;;;;;;;;;;5113079;28;20197;-48
2022/04/02 08:15:56;;;;;;;17.00;8.80;;;;;;;;;;5106954;28;20252;-52
2022/04/02 08:18:26;;;;;;;12.33;7.03;;;;;;;;;;5104420;28;20433;-51
2022/04/02 08:20:54;;;;;;;13.80;7.33;;;;;;;;;;5109994;27;20233;-51
2022/04/02 08:23:29;;;;;;;17.33;7.97;;;;;;;;;;5110560;28;20226;-52
2022/04/02 08:25:59;;;;;;;14.77;7.17;;;;;;;;;;5101345;27;20229;-54
2022/04/02 08:28:36;;;;;;;14.13;7.90;;;;;;;;;;5095315;28;20237;-53
2022/04/02 08:31:13;;;;;;;13.70;7.50;;;;;;;;;;5107746;28;20355;-53
2022/04/02 08:34:09;;;;;;;20.83;8.53;;;;;;;;;;5102822;28;20226;-49
2022/04/02 08:36:54;;;;;;;10.23;5.73;;;;;;;;;;5093697;28;20255;-53
2022/04/02 08:39:59;;;;;;;15.50;8.07;;;;;;;;;;5093565;28;20273;-51
2022/04/02 08:42:47;;;;;;;14.63;7.33;;;;;;;;;;5081382;28;20340;-50
2022/04/02 08:45:15;;;;;;;13.53;8.10;;;;;;;;;;5092231;28;20252;-50
2022/04/02 08:47:49;;;;;;;15.23;7.77;;;;;;;;;;5092702;28;20309;-50
2022/04/02 08:50:16;;;;;;;17.33;8.53;;;;;;;;;;5093068;28;20234;-51
2022/04/02 08:52:55;;;;;;;17.60;8.00;;;;;;;;;;5096107;28;20691;-52
2022/04/02 08:55:41;;;;;;;14.70;7.27;;;;;;;;;;5112793;28;20222;-50
2022/04/02 08:58:10;;;;;;;12.40;7.07;;;;;;;;;;5113879;28;20321;-54
2022/04/02 09:00:45;;;;;;;9.10;6.33;;;;;;;;;;5111834;28;20739;-50
2022/04/02 09:03:43;;;;;;;13.77;8.03;;;;;;;;;;5111703;28;20647;-49
2022/04/02 09:06:30;;;;;;;11.40;7.07;;;;;;;;;;5107402;27;20223;-49
2022/04/02 09:09:11;;;;;;;12.27;6.87;;;;;;;;;;5110472;28;20616;-49
2022/04/02 09:11:50;;;;;;;15.13;7.67;;;;;;;;;;5116574;28;20237;-51
2022/04/02 09:14:30;;;;;;;16.37;9.10;;;;;;;;;;5117758;28;20308;-50
2022/04/02 09:17:00;;;;;;;10.83;6.53;;;;;;;;;;5117152;27;20261;-50
2022/04/02 09:19:42;;;;;;;14.47;8.03;;;;;;;;;;5107506;28;20292;-49
2022/04/02 09:22:38;;;;;;;13.87;8.13;;;;;;;;;;5117303;28;20287;-50
2022/04/02 09:25:30;;;;;;;14.33;7.43;;;;;;;;;;5108437;28;20252;-50
2022/04/02 09:28:25;;;;;;;15.23;8.37;;;;;;;;;;5117360;28;20222;-49
2022/04/02 09:31:14;;;;;;;14.70;6.27;;;;;;;;;;5116846;27;20305;-48
2022/04/02 09:34:07;;;;;;;12.73;7.87;;;;;;;;;;5114975;28;20618;-50
2022/04/02 09:36:38;;;;;;;13.10;6.77;;;;;;;;;;5067280;28;20277;-48
2022/04/02 09:39:56;;;;;;;14.77;8.87;;;;;;;;;;5096649;28;20253;-47
2022/04/02 09:42:44;;;;;;;13.40;8.63;;;;;;;;;;5054152;28;20757;-48
2022/04/02 09:45:15;;;;;;;14.77;7.87;;;;;;;;;;5054462;28;20305;-52
2022/04/02 09:48:00;;;;;;;17.77;8.07;;;;;;;;;;5053736;28;20725;-49
2022/04/02 09:50:28;;;;;;;14.83;8.77;;;;;;;;;;5054473;28;20570;-48
2022/04/02 09:53:19;;;;;;;18.93;9.70;;;;;;;;;;5072214;28;20281;-55
2022/04/02 09:56:01;;;;;;;20.20;9.67;;;;;;;;;;5077617;28;20579;-52
2022/04/02 09:58:50;;;;;;;40.72;21.42;;;;;;;;;;5085938;28;20470;-47
2022/04/02 10:01:49;;;;;;;39.30;14.63;;;;;;;;;;5094104;28;20258;-49
2022/04/02 10:04:32;;;;;;;21.07;9.10;;;;;;;;;;5032253;28;20660;-49
2022/04/02 10:07:02;;;;;;;11.73;6.73;;;;;;;;;;5053606;28;20223;-48
2022/04/02 10:09:36;;;;;;;22.20;9.90;;;;;;;;;;5054184;28;20611;-50
2022/04/02 10:12:05;;;;;;;19.87;9.93;;;;;;;;;;5053654;28;20238;-50
2022/04/02 10:14:34;;;;;;;18.63;10.40;;;;;;;;;;5053885;28;20302;-49
2022/04/02 10:17:06;;;;;;;27.67;12.27;;;;;;;;;;5062384;28;20222;-52
2022/04/02 10:19:37;;;;;;;16.10;10.13;;;;;;;;;;5095347;28;20306;-48
2022/04/02 10:22:04;;;;;;;20.10;11.03;;;;;;;;;;5102100;27;20230;-51
2022/04/02 10:25:00;;;;;;;19.97;11.10;;;;;;;;;;5112832;27;20301;-54
2022/04/02 10:27:31;;;;;;;22.80;12.17;;;;;;;;;;5110872;27;20225;-48
2022/04/02 10:30:03;;;;;;;21.23;11.57;;;;;;;;;;5114779;28;20257;-48
2022/04/02 10:32:55;;;;;;;24.37;12.07;;;;;;;;;;5114232;27;20354;-49
2022/04/02 10:35:26;;;;;;;25.97;12.23;;;;;;;;;;5111575;28;20245;-49
2022/04/02 10:37:59;;;;;;;16.60;10.00;;;;;;;;;;5115449;28;20279;-48
2022/04/02 10:40:29;;;;;;;19.23;11.50;;;;;;;;;;5115808;28;20321;-47
2022/04/02 10:43:06;;;;;;;22.07;10.87;;;;;;;;;;5115419;28;20217;-51
2022/04/02 10:45:39;;;;;;;31.10;12.73;;;;;;;;;;5115722;28;20226;-49
2022/04/02 10:48:13;;;;;;;20.80;9.83;;;;;;;;;;5115436;28;20238;-51
2022/04/02 10:50:42;;;;;;;26.33;13.57;;;;;;;;;;5115834;28;20310;-47
2022/04/02 10:53:13;;;;;;;22.73;12.17;;;;;;;;;;5114506;28;20558;-48
2022/04/02 10:55:46;;;;;;;29.77;15.47;;;;;;;;;;5115965;28;20292;-47
2022/04/02 10:58:14;;;;;;;28.77;14.30;;;;;;;;;;5115512;28;20242;-47
2022/04/02 11:00:45;;;;;;;27.27;14.37;;;;;;;;;;5115151;28;20711;-53
2022/04/02 11:03:20;;;;;;;31.57;14.77;;;;;;;;;;5115141;28;20295;-50
2022/04/02 11:05:48;;;;;;;28.83;14.20;;;;;;;;;;5114106;28;20305;-48
2022/04/02 11:08:16;;;;;;;25.60;13.43;;;;;;;;;;5111709;28;20325;-50
2022/04/02 11:10:48;;;;;;;28.80;13.63;;;;;;;;;;5110754;28;20368;-50
2022/04/02 11:13:29;;;;;;;29.90;15.37;;;;;;;;;;5104929;27;20231;-48
2022/04/02 11:15:57;;;;;;;34.37;15.47;;;;;;;;;;5103268;28;20297;-51
2022/04/02 11:18:25;;;;;;;34.70;15.90;;;;;;;;;;5114632;27;20249;-52
2022/04/02 11:21:02;;;;;;;28.27;14.53;;;;;;;;;;5111383;28;20254;-51
2022/04/02 11:23:46;;;;;;;33.03;16.37;;;;;;;;;;5107158;28;20226;-51
2022/04/02 11:26:19;;;;;;;30.23;15.87;;;;;;;;;;5103768;28;20309;-51
2022/04/02 11:28:52;;;;;;;28.03;12.73;;;;;;;;;;5104721;27;21099;-53
2022/04/02 11:31:28;;;;;;;22.10;11.43;;;;;;;;;;5105997;28;20714;-50
2022/04/02 11:33:57;;;;;;;26.53;11.87;;;;;;;;;;5104001;27;20214;-50
2022/04/02 11:36:43;;;;;;;24.37;11.77;;;;;;;;;;5102820;28;20306;-52
2022/04/02 11:39:19;;;;;;;22.67;12.17;;;;;;;;;;5104144;27;20225;-49
2022/04/02 11:41:49;;;;;;;24.10;10.73;;;;;;;;;;5105070;28;20245;-50
2022/04/02 11:44:16;;;;;;;30.73;12.70;;;;;;;;;;5099945;28;20218;-50
2022/04/02 11:46:57;;;;;;;20.83;10.03;;;;;;;;;;5105202;28;20222;-50
2022/04/02 11:49:29;;;;;;;20.77;11.43;;;;;;;;;;5102261;28;20225;-51
2022/04/02 11:52:06;;;;;;;14.30;8.37;;;;;;;;;;5101227;28;20326;-54
2022/04/02 11:54:40;;;;;;;22.17;10.43;;;;;;;;;;5102029;27;20260;-54
2022/04/02 11:57:12;;;;;;;25.77;11.33;;;;;;;;;;5102068;28;20244;-50
2022/04/02 11:59:52;;;;;;;22.47;12.07;;;;;;;;;;5102271;28;20213;-50
2022/04/02 12:02:40;;;;;;;20.70;10.20;;;;;;;;;;5101039;28;20313;-54
2022/04/02 12:05:11;;;;;;;22.60;10.93;;;;;;;;;;5103828;28;20329;-53
2022/04/02 12:07:43;;;;;;;20.37;10.53;;;;;;;;;;5101298;28;20285;-51
2022/04/02 12:10:32;;;;;;;23.50;11.50;;;;;;;;;;5107345;27;20716;-52
2022/04/02 12:13:04;;;;;;;17.13;10.03;;;;;;;;;;5113616;28;20300;-50
2022/04/02 12:15:31;;;;;;;19.30;10.93;;;;;;;;;;5113531;27;20222;-50
2022/04/02 12:18:06;;;;;;;23.83;10.73;;;;;;;;;;5100691;28;20288;-51
2022/04/02 12:20:39;;;;;;;20.97;9.57;;;;;;;;;;5101972;28;20225;-55
2022/04/02 12:23:10;;;;;;;24.20;11.33;;;;;;;;;;5103662;28;20275;-52
2022/04/02 12:25:40;;;;;;;17.27;9.83;;;;;;;;;;5102438;28;20210;-51
2022/04/02 12:28:12;;;;;;;24.17;10.27;;;;;;;;;;5105765;28;20289;-54
2022/04/02 12:30:41;;;;;;;18.70;10.53;;;;;;;;;;5104085;28;20230;-50
2022/04/02 12:33:14;;;;;;;23.47;10.83;;;;;;;;;;5103425;28;20289;-52
2022/04/02 12:35:45;;;;;;;20.50;10.83;;;;;;;;;;5101063;27;20225;-51
2022/04/02 12:38:30;;;;;;;25.43;10.80;;;;;;;;;;5092939;28;20313;-53
2022/04/02 12:41:00;;;;;;;27.30;11.67;;;;;;;;;;5112261;28;20679;-55
2022/04/02 12:43:29;;;;;;;26.80;11.77;;;;;;;;;;5115641;28;20264;-52
2022/04/02 12:45:58;;;;;;;30.10;11.33;;;;;;;;;;5115320;27;20252;-53
2022/04/02 12:48:39;;;;;;;24.30;9.73;;;;;;;;;;5115154;28;20226;-50
2022/04/02 12:51:12;;;;;;;20.87;9.90;;;;;;;;;;5115810;27;20900;-49
2022/04/02 12:53:44;;;;;;;21.63;9.33;;;;;;;;;;5115900;28;20232;-51
2022/04/02 12:56:18;;;;;;;22.83;10.87;;;;;;;;;;5115764;27;20317;-51
2022/04/02 12:58:48;;;;;;;26.83;10.90;;;;;;;;;;5115432;28;20225;-50
2022/04/02 13:01:27;;;;;;;26.37;11.27;;;;;;;;;;5114878;28;20360;-49
2022/04/02 13:03:59;;;;;;;21.63;10.33;;;;;;;;;;5115815;28;20221;-47
2022/04/02 13:06:28;;;;;;;20.10;9.20;;;;;;;;;;5116250;27;20321;-48
2022/04/02 13:09:06;;;;;;;16.90;8.63;;;;;;;;;;5115435;28;20304;-50
2022/04/02 13:11:58;;;;;;;22.73;9.77;;;;;;;;;;5113974;28;20225;-49
2022/04/02 13:14:27;;;;;;;19.10;9.50;;;;;;;;;;5115886;28;20283;-50
2022/04/02 13:17:12;;;;;;;18.73;8.87;;;;;;;;;;5114635;28;20607;-48
2022/04/02 13:22:49;;;;;;;16.83;8.57;;;;;;;;;;5106117;28;20213;-52
2022/04/02 13:25:23;;;;;;;19.43;8.40;;;;;;;;;;5100921;28;20265;-60
2022/04/02 13:28:28;;;;;;;21.50;9.70;;;;;;;;;;5094306;28;20305;-61
2022/04/02 13:31:00;;;;;;;21.37;9.47;;;;;;;;;;5099880;28;20218;-61
2022/04/02 13:33:31;;;;;;;17.97;8.87;;;;;;;;;;5110303;28;20245;-61
2022/04/02 13:36:21;;;;;;;17.00;9.57;;;;;;;;;;5103744;28;20732;-62
2022/04/02 13:39:00;;;;;;;17.67;8.57;;;;;;;;;;5106100;28;20283;-62
2022/04/02 13:41:30;;;;;;;19.73;9.70;;;;;;;;;;5108269;27;20225;-61
2022/04/02 13:44:00;;;;;;;15.90;8.73;;;;;;;;;;5106646;28;20331;-61
2022/04/02 13:46:44;;;;;;;24.50;9.93;;;;;;;;;;5103828;27;20282;-61
2022/04/02 13:49:12;;;;;;;22.27;8.87;;;;;;;;;;5106698;28;20651;-62
2022/04/02 13:51:44;;;;;;;39.70;16.73;;;;;;;;;;5104113;28;20226;-61
2022/04/02 13:54:21;;;;;;;51.23;22.13;;;;;;;;;;5103994;28;20549;-61
2022/04/02 13:56:58;;;;;;;47.73;20.70;;;;;;;;;;5103746;28;20272;-61
2022/04/02 13:59:31;;;;;;;41.13;20.70;;;;;;;;;;5104253;28;20210;-62
2022/04/02 14:02:04;;;;;;;48.87;20.63;;;;;;;;;;5103539;28;20703;-60
2022/04/02 14:04:37;;;;;;;37.67;16.97;;;;;;;;;;5106281;28;20245;-61
2022/04/02 14:07:07;;;;;;;46.23;20.73;;;;;;;;;;5102821;28;20301;-61
2022/04/02 14:09:36;;;;;;;37.47;18.00;;;;;;;;;;5110116;28;20226;-60
2022/04/02 14:12:18;;;;;;;46.03;22.60;;;;;;;;;;5116447;27;20238;-61
2022/04/02 14:15:09;;;;;;;41.13;18.87;;;;;;;;;;5115133;28;20624;-61
2022/04/02 14:17:46;;;;;;;48.10;23.67;;;;;;;;;;5110748;27;20363;-62
2022/04/02 14:20:15;;;;;;;37.63;15.80;;;;;;;;;;5094850;28;20309;-62
2022/04/02 14:22:58;;;;;;;46.80;21.47;;;;;;;;;;5095537;28;20276;-62
2022/04/02 14:25:51;;;;;;;38.80;17.33;;;;;;;;;;5095744;28;20222;-63
2022/04/02 14:28:41;;;;;;;51.07;22.03;;;;;;;;;;5094569;28;20310;-63
2022/04/02 14:31:11;;;;;;;45.10;20.80;;;;;;;;;;5095258;28;20617;-62
2022/04/02 14:34:20;;;;;;;42.43;20.23;;;;;;;;;;5096332;28;20250;-62
2022/04/02 14:37:14;;;;;;;60.93;25.97;;;;;;;;;;5094720;28;20537;-62
2022/04/02 14:39:51;;;;;;;48.37;19.90;;;;;;;;;;5094774;28;20317;-62
2022/04/02 14:42:38;;;;;;;48.17;19.07;;;;;;;;;;5095416;28;20238;-61
2022/04/02 14:45:24;;;;;;;51.77;23.33;;;;;;;;;;5083082;28;20309;-61
2022/04/02 14:48:05;;;;;;;52.47;21.90;;;;;;;;;;5094502;28;20244;-61
2022/04/02 14:51:17;;;;;;;54.13;23.20;;;;;;;;;;5093208;28;20615;-62
2022/04/02 14:54:06;;;;;;;41.60;18.23;;;;;;;;;;5093859;28;20276;-60
2022/04/02 14:56:51;;;;;;;45.57;19.37;;;;;;;;;;5094224;28;20535;-61
2022/04/02 14:59:43;;;;;;;40.90;17.60;;;;;;;;;;5094648;28;20254;-61
2022/04/02 15:02:47;;;;;;;44.97;17.43;;;;;;;;;;5095374;28;20330;-62
2022/04/02 15:05:33;;;;;;;64.37;25.97;;;;;;;;;;5109146;28;20234;-62
2022/04/02 15:08:28;;;;;;;52.03;19.67;;;;;;;;;;5115173;28;20218;-62
2022/04/02 15:10:58;;;;;;;70.57;28.90;;;;;;;;;;5115181;27;20226;-63
2022/04/02 15:13:27;;;;;;;78.63;31.37;;;;;;;;;;5114224;28;20253;-60
2022/04/02 15:15:55;;;;;;;76.87;31.63;;;;;;;;;;5114585;27;20241;-67
2022/04/02 15:18:27;;;;;;;73.33;31.07;;;;;;;;;;5104851;28;20726;-66
2022/04/02 15:21:10;;;;;;;71.70;28.47;;;;;;;;;;5094766;28;20318;-64
2022/04/02 15:23:56;;;;;;;76.50;29.47;;;;;;;;;;5094185;28;20230;-66
2022/04/02 15:26:24;;;;;;;74.07;27.17;;;;;;;;;;5094241;28;20301;-64
2022/04/02 15:29:09;;;;;;;73.47;28.17;;;;;;;;;;5094604;28;20552;-65
2022/04/02 15:32:00;;;;;;;63.70;24.43;;;;;;;;;;5107173;28;20300;-62
2022/04/02 15:34:30;;;;;;;87.37;35.07;;;;;;;;;;5112891;27;20220;-62
2022/04/02 15:37:06;;;;;;;81.47;30.77;;;;;;;;;;5108592;28;20271;-61
2022/04/02 15:39:36;;;;;;;71.90;26.10;;;;;;;;;;5103070;28;20226;-62
2022/04/02 15:42:16;;;;;;;83.73;33.73;;;;;;;;;;5109363;28;20382;-61
2022/04/02 15:44:44;;;;;;;84.80;29.87;;;;;;;;;;5110691;28;20271;-64
2022/04/02 15:47:43;;;;;;;89.67;32.97;;;;;;;;;;5113342;28;20250;-67
2022/04/02 15:50:14;;;;;;;89.90;34.97;;;;;;;;;;5112502;27;20222;-61